Time,TemperatureF,DewpointF,PressureIn,WindDirection,WindDirectionDegrees,WindSpeedMPH,WindSpeedGustMPH,Humidity,HourlyPrecipIn,Conditions,Clouds,dailyrainin,SoftwareType,DateUTC
2013-01-13 00:03:00,-6.0,-9.8,29.75,SSW,204,0.0,0.0,83,0.00,,---,0.00,VWS V14.01,2013-01-13 07:03:00,
2013-01-13 00:09:00,-6.0,-9.8,29.76,NE,46,0.0,0.0,83,0.00,,---,0.00,VWS V14.01,2013-01-13 07:09:00,
2013-01-13 00:14:00,-5.8,-9.6,29.75,WSW,242,0.0,1.0,83,0.00,,---,0.00,VWS V14.01,2013-01-13 07:14:00,
2013-01-13 00:19:00,-5.6,-9.4,29.75,ESE,104,0.0,1.0,83,0.00,,---,0.00,VWS V14.01,2013-01-13 07:19:00,
2013-01-13 00:24:00,-5.4,-9.2,29.76,WSW,257,1.0,2.0,83,0.00,,---,0.00,VWS V14.01,2013-01-13 07:24:00,
2013-01-13 00:29:00,-5.1,-8.9,29.75,NNW,334,1.0,3.0,83,0.00,,---,0.00,VWS V14.01,2013-01-13 07:29:00,
2013-01-13 00:34:00,-4.8,-8.6,29.75,South,177,0.0,0.0,83,0.00,,---,0.00,VWS V14.01,2013-01-13 07:34:00,
2013-01-13 00:39:00,-5.0,-9.3,29.75,NW,311,1.0,1.0,81,0.00,,---,0.00,VWS V14.01,2013-01-13 07:39:00,
2013-01-13 00:44:00,-5.0,-8.8,29.75,West,278,1.0,3.0,83,0.00,,---,0.00,VWS V14.01,2013-01-13 07:44:00,
2013-01-13 00:49:00,-4.5,-8.3,29.75,West,278,0.0,3.0,83,0.00,,---,0.00,VWS V14.01,2013-01-13 07:49:00,
2013-01-13 00:54:00,-4.2,-7.8,29.76,West,281,0.0,3.0,84,0.00,,---,0.00,VWS V14.01,2013-01-13 07:54:00,
2013-01-13 00:59:00,-4.0,-7.8,29.76,West,281,0.0,3.0,83,0.00,,---,0.00,VWS V14.01,2013-01-13 07:59:00,
2013-01-13 01:04:00,-4.0,-7.8,29.75,West,279,0.0,0.0,83,0.00,,---,0.00,VWS V14.01,2013-01-13 08:04:00,
2013-01-13 01:09:00,-4.0,-7.8,29.75,NW,307,0.0,1.0,83,0.00,,---,0.00,VWS V14.01,2013-01-13 08:09:00,
2013-01-13 01:14:00,-3.6,-7.2,29.75,NNW,342,1.0,3.0,84,0.00,,---,0.00,VWS V14.01,2013-01-13 08:14:00,
2013-01-13 01:19:00,-3.3,-6.9,29.75,NNW,332,1.0,3.0,84,0.00,,---,0.00,VWS V14.01,2013-01-13 08:19:00,
2013-01-13 01:24:00,-3.5,-7.9,29.75,NNW,338,1.0,4.0,81,0.00,,---,0.00,VWS V14.01,2013-01-13 08:24:00,
2013-01-13 01:29:00,-3.9,-8.5,29.76,NW,322,2.0,4.0,80,0.00,,---,0.00,VWS V14.01,2013-01-13 08:29:00,
2013-01-13 01:34:00,-3.8,-8.1,29.75,NNW,336,1.0,2.0,81,0.00,,---,0.00,VWS V14.01,2013-01-13 08:34:00,
2013-01-13 01:39:00,-4.0,-8.4,29.76,NNW,340,1.0,2.0,81,0.00,,---,0.00,VWS V14.01,2013-01-13 08:39:00,
2013-01-13 01:44:00,-3.7,-7.8,29.76,NNW,340,0.0,2.0,82,0.00,,---,0.00,VWS V14.01,2013-01-13 08:44:00,
2013-01-13 01:49:00,-3.9,-8.0,29.76,NNW,340,0.0,2.0,82,0.00,,---,0.00,VWS V14.01,2013-01-13 08:49:00,
2013-01-13 01:54:00,-4.0,-8.1,29.76,NNW,340,0.0,2.0,82,0.00,,---,0.00,VWS V14.01,2013-01-13 08:54:00,
2013-01-13 01:59:00,-3.9,-7.8,29.76,NNW,340,0.0,2.0,83,0.00,,---,0.00,VWS V14.01,2013-01-13 08:59:00,
2013-01-13 02:04:00,-3.8,-7.7,29.76,NNW,340,1.0,2.0,83,0.00,,---,0.00,VWS V14.01,2013-01-13 09:04:00,
2013-01-13 02:09:00,-3.8,-7.9,29.76,NNW,340,0.0,2.0,82,0.00,,---,0.00,VWS V14.01,2013-01-13 09:09:00,
2013-01-13 02:14:00,-4.1,-8.2,29.76,NNW,340,0.0,2.0,82,0.00,,---,0.00,VWS V14.01,2013-01-13 09:14:00,
2013-01-13 02:19:00,-4.1,-8.2,29.76,NNW,340,0.0,2.0,82,0.00,,---,0.00,VWS V14.01,2013-01-13 09:19:00,
2013-01-13 02:24:00,-4.0,-7.8,29.76,NNW,343,0.0,2.0,83,0.00,,---,0.00,VWS V14.01,2013-01-13 09:24:00,
2013-01-13 02:29:00,-4.0,-8.1,29.76,NNW,336,0.0,2.0,82,0.00,,---,0.00,VWS V14.01,2013-01-13 09:29:00,
2013-01-13 02:34:00,-4.1,-8.2,29.76,NNW,338,0.0,2.0,82,0.00,,---,0.00,VWS V14.01,2013-01-13 09:34:00,
2013-01-13 02:39:00,-3.7,-7.6,29.76,SSE,160,0.0,2.0,83,0.00,,---,0.00,VWS V14.01,2013-01-13 09:39:00,
2013-01-13 02:44:00,-3.9,-8.0,29.76,NNW,337,0.0,2.0,82,0.00,,---,0.00,VWS V14.01,2013-01-13 09:44:00,
2013-01-13 02:49:00,-4.0,-8.1,29.75,SE,132,0.0,2.0,82,0.00,,---,0.00,VWS V14.01,2013-01-13 09:49:00,
2013-01-13 02:54:00,-4.1,-8.2,29.76,NW,309,0.0,2.0,82,0.00,,---,0.00,VWS V14.01,2013-01-13 09:54:00,
2013-01-13 02:59:00,-4.1,-8.2,29.75,NW,307,0.0,2.0,82,0.00,,---,0.00,VWS V14.01,2013-01-13 09:59:00,
2013-01-13 03:04:00,-4.4,-8.7,29.76,NW,310,0.0,0.0,81,0.00,,---,0.00,VWS V14.01,2013-01-13 10:04:00,
2013-01-13 03:09:00,-4.5,-8.8,29.75,NW,310,0.0,0.0,81,0.00,,---,0.00,VWS V14.01,2013-01-13 10:09:00,
2013-01-13 03:14:00,-4.5,-8.8,29.75,NW,310,0.0,0.0,81,0.00,,---,0.00,VWS V14.01,2013-01-13 10:14:00,
2013-01-13 03:19:00,-4.5,-8.8,29.75,NW,310,0.0,0.0,81,0.00,,---,0.00,VWS V14.01,2013-01-13 10:19:00,
2013-01-13 03:24:00,-4.5,-8.8,29.75,NW,310,0.0,0.0,81,0.00,,---,0.00,VWS V14.01,2013-01-13 10:24:00,
2013-01-13 03:29:00,-4.5,-8.8,29.75,NW,310,0.0,0.0,81,0.00,,---,0.00,VWS V14.01,2013-01-13 10:29:00,
2013-01-13 03:34:00,-4.5,-8.8,29.75,NW,310,0.0,0.0,81,0.00,,---,0.00,VWS V14.01,2013-01-13 10:34:00,
2013-01-13 03:39:00,-4.5,-8.8,29.75,NW,310,0.0,0.0,81,0.00,,---,0.00,VWS V14.01,2013-01-13 10:39:00,
2013-01-13 03:44:00,-4.5,-8.8,29.74,NW,310,0.0,0.0,81,0.00,,---,0.00,VWS V14.01,2013-01-13 10:44:00,
2013-01-13 03:49:00,-4.5,-8.8,29.74,NW,310,0.0,0.0,81,0.00,,---,0.00,VWS V14.01,2013-01-13 10:49:00,
2013-01-13 03:54:00,-4.5,-8.8,29.74,NW,310,0.0,0.0,81,0.00,,---,0.00,VWS V14.01,2013-01-13 10:54:00,
2013-01-13 03:59:00,-4.5,-8.8,29.74,NW,310,0.0,0.0,81,0.00,,---,0.00,VWS V14.01,2013-01-13 10:59:00,
2013-01-13 04:04:00,-4.5,-8.8,29.74,NW,310,0.0,0.0,81,0.00,,---,0.00,VWS V14.01,2013-01-13 11:04:00,
2013-01-13 04:09:00,-4.5,-8.8,29.73,NW,310,0.0,0.0,81,0.00,,---,0.00,VWS V14.01,2013-01-13 11:09:00,
2013-01-13 04:14:00,-4.5,-8.8,29.73,NW,310,0.0,0.0,81,0.00,,---,0.00,VWS V14.01,2013-01-13 11:14:00,
2013-01-13 04:19:00,-4.5,-8.8,29.74,NW,310,0.0,0.0,81,0.00,,---,0.00,VWS V14.01,2013-01-13 11:19:00,
2013-01-13 04:24:00,-4.5,-8.8,29.74,NW,310,0.0,0.0,81,0.00,,---,0.00,VWS V14.01,2013-01-13 11:24:00,
2013-01-13 04:29:00,-4.5,-8.8,29.74,NW,310,0.0,0.0,81,0.00,,---,0.00,VWS V14.01,2013-01-13 11:29:00,
2013-01-13 04:34:00,-4.5,-8.8,29.74,NW,310,0.0,0.0,81,0.00,,---,0.00,VWS V14.01,2013-01-13 11:34:00,
2013-01-13 04:39:00,-4.5,-8.8,29.74,NW,310,0.0,0.0,81,0.00,,---,0.00,VWS V14.01,2013-01-13 11:39:00,
2013-01-13 04:44:00,-4.5,-8.8,29.74,NW,310,0.0,0.0,81,0.00,,---,0.00,VWS V14.01,2013-01-13 11:44:00,
2013-01-13 04:49:00,-4.5,-8.8,29.74,NW,310,0.0,0.0,81,0.00,,---,0.00,VWS V14.01,2013-01-13 11:49:00,
2013-01-13 04:54:00,-4.5,-8.8,29.74,NW,310,0.0,0.0,81,0.00,,---,0.00,VWS V14.01,2013-01-13 11:54:00,
2013-01-13 04:59:00,-4.5,-8.8,29.74,NW,310,0.0,0.0,81,0.00,,---,0.00,VWS V14.01,2013-01-13 11:59:00,
2013-01-13 05:04:00,-4.5,-8.8,29.74,NW,310,0.0,0.0,81,0.00,,---,0.00,VWS V14.01,2013-01-13 12:04:00,
2013-01-13 05:09:00,-4.5,-8.8,29.74,NW,310,0.0,0.0,81,0.00,,---,0.00,VWS V14.01,2013-01-13 12:09:00,
2013-01-13 05:14:00,-4.5,-8.8,29.74,NW,310,0.0,0.0,81,0.00,,---,0.00,VWS V14.01,2013-01-13 12:14:00,
2013-01-13 05:19:00,-4.5,-8.8,29.74,NW,310,0.0,0.0,81,0.00,,---,0.00,VWS V14.01,2013-01-13 12:19:00,
2013-01-13 05:24:00,-4.5,-8.8,29.74,NW,310,0.0,0.0,81,0.00,,---,0.00,VWS V14.01,2013-01-13 12:24:00,
2013-01-13 05:29:00,-4.5,-8.8,29.74,NW,310,0.0,0.0,81,0.00,,---,0.00,VWS V14.01,2013-01-13 12:29:00,
2013-01-13 05:34:00,-4.5,-8.8,29.74,NW,310,0.0,0.0,81,0.00,,---,0.00,VWS V14.01,2013-01-13 12:34:00,
2013-01-13 05:39:00,-4.5,-8.8,29.75,NW,310,0.0,0.0,81,0.00,,---,0.00,VWS V14.01,2013-01-13 12:39:00,
2013-01-13 05:44:00,-4.5,-8.8,29.75,NW,310,0.0,0.0,81,0.00,,---,0.00,VWS V14.01,2013-01-13 12:44:00,
2013-01-13 05:49:00,-4.5,-8.8,29.75,NW,310,0.0,0.0,81,0.00,,---,0.00,VWS V14.01,2013-01-13 12:49:00,
2013-01-13 05:54:00,-4.5,-8.8,29.75,NW,310,0.0,0.0,81,0.00,,---,0.00,VWS V14.01,2013-01-13 12:54:00,
2013-01-13 05:59:00,-4.5,-8.8,29.75,NW,310,0.0,0.0,81,0.00,,---,0.00,VWS V14.01,2013-01-13 12:59:00,
2013-01-13 06:04:00,-4.5,-8.8,29.75,NW,310,0.0,0.0,81,0.00,,---,0.00,VWS V14.01,2013-01-13 13:04:00,
2013-01-13 06:09:00,-4.5,-8.8,29.75,NW,310,0.0,0.0,81,0.00,,---,0.00,VWS V14.01,2013-01-13 13:09:00,
2013-01-13 06:14:00,-4.5,-8.8,29.75,NW,310,0.0,0.0,81,0.00,,---,0.00,VWS V14.01,2013-01-13 13:14:00,
2013-01-13 06:19:00,-4.5,-8.8,29.75,NW,310,0.0,0.0,81,0.00,,---,0.00,VWS V14.01,2013-01-13 13:19:00,
2013-01-13 06:24:00,-4.5,-8.8,29.76,NW,310,0.0,0.0,81,0.00,,---,0.00,VWS V14.01,2013-01-13 13:24:00,
2013-01-13 06:29:00,-4.5,-8.8,29.76,NW,310,0.0,0.0,81,0.00,,---,0.00,VWS V14.01,2013-01-13 13:29:00,
2013-01-13 06:34:00,-4.5,-8.8,29.76,NW,310,0.0,0.0,81,0.00,,---,0.00,VWS V14.01,2013-01-13 13:34:00,
2013-01-13 06:39:00,-4.5,-8.8,29.76,NW,310,0.0,0.0,81,0.00,,---,0.00,VWS V14.01,2013-01-13 13:39:00,
2013-01-13 06:44:00,-4.5,-8.8,29.76,NW,310,0.0,0.0,81,0.00,,---,0.00,VWS V14.01,2013-01-13 13:44:00,
2013-01-13 06:49:00,-4.5,-8.8,29.77,NW,310,0.0,0.0,81,0.00,,---,0.00,VWS V14.01,2013-01-13 13:49:00,
2013-01-13 06:54:00,-4.5,-8.8,29.77,NW,310,0.0,0.0,81,0.00,,---,0.00,VWS V14.01,2013-01-13 13:54:00,
2013-01-13 06:59:00,-4.5,-8.8,29.77,NW,310,0.0,0.0,81,0.00,,---,0.00,VWS V14.01,2013-01-13 13:59:00,
2013-01-13 07:04:00,-4.5,-8.8,29.77,NW,310,0.0,0.0,81,0.00,,---,0.00,VWS V14.01,2013-01-13 14:04:00,
2013-01-13 07:09:00,-4.5,-8.8,29.77,NW,310,0.0,0.0,81,0.00,,---,0.00,VWS V14.01,2013-01-13 14:09:00,
2013-01-13 07:14:00,-4.5,-8.8,29.77,NW,310,0.0,0.0,81,0.00,,---,0.00,VWS V14.01,2013-01-13 14:14:00,
2013-01-13 07:19:00,-4.5,-8.8,29.77,NW,310,0.0,0.0,81,0.00,,---,0.00,VWS V14.01,2013-01-13 14:19:00,
2013-01-13 07:24:00,-4.5,-8.8,29.78,NW,310,0.0,0.0,81,0.00,,---,0.00,VWS V14.01,2013-01-13 14:24:00,
2013-01-13 07:29:00,-4.5,-8.8,29.77,NW,310,0.0,0.0,81,0.00,,---,0.00,VWS V14.01,2013-01-13 14:29:00,
2013-01-13 07:34:00,-4.5,-8.8,29.77,NW,310,0.0,0.0,81,0.00,,---,0.00,VWS V14.01,2013-01-13 14:34:00,
2013-01-13 07:39:00,-4.5,-8.8,29.77,NW,310,0.0,0.0,81,0.00,,---,0.00,VWS V14.01,2013-01-13 14:39:00,
2013-01-13 07:44:00,-4.5,-8.8,29.78,NW,310,0.0,0.0,81,0.00,,---,0.00,VWS V14.01,2013-01-13 14:44:00,
2013-01-13 07:49:00,-4.5,-8.8,29.79,NW,310,0.0,0.0,81,0.00,,---,0.00,VWS V14.01,2013-01-13 14:49:00,
2013-01-13 07:54:00,-4.5,-8.8,29.78,NW,310,0.0,0.0,81,0.00,,---,0.00,VWS V14.01,2013-01-13 14:54:00,
2013-01-13 07:59:00,-4.5,-8.8,29.78,NW,310,0.0,0.0,81,0.00,,---,0.00,VWS V14.01,2013-01-13 14:59:00,
2013-01-13 08:04:00,-4.5,-8.8,29.78,NW,310,0.0,0.0,81,0.00,,---,0.00,VWS V14.01,2013-01-13 15:04:00,
2013-01-13 08:09:00,-4.5,-8.8,29.79,NW,310,0.0,0.0,81,0.00,,---,0.00,VWS V14.01,2013-01-13 15:09:00,
2013-01-13 08:14:00,-4.5,-8.8,29.80,NW,310,0.0,0.0,81,0.00,,---,0.00,VWS V14.01,2013-01-13 15:14:00,
2013-01-13 08:19:00,-4.5,-8.8,29.79,NW,310,0.0,0.0,81,0.00,,---,0.00,VWS V14.01,2013-01-13 15:19:00,
2013-01-13 08:24:00,-4.5,-8.8,29.79,NW,310,0.0,0.0,81,0.00,,---,0.00,VWS V14.01,2013-01-13 15:24:00,
2013-01-13 08:29:00,-4.5,-8.8,29.80,NW,310,0.0,0.0,81,0.00,,---,0.00,VWS V14.01,2013-01-13 15:29:00,
2013-01-13 08:34:00,-2.1,-5.7,29.80,SE,126,1.0,2.0,84,0.00,,---,0.00,VWS V14.01,2013-01-13 15:34:00,
2013-01-13 08:39:00,-1.8,-5.4,29.80,SE,129,3.0,3.0,84,0.00,,---,0.00,VWS V14.01,2013-01-13 15:39:00,
2013-01-13 08:44:00,-1.4,-5.1,29.80,ESE,121,2.0,4.0,84,0.00,,---,0.00,VWS V14.01,2013-01-13 15:44:00,
2013-01-13 08:49:00,-1.0,-4.7,29.80,SE,133,1.0,4.0,84,0.00,,---,0.00,VWS V14.01,2013-01-13 15:49:00,
2013-01-13 08:54:00,-0.6,-4.3,29.80,SSE,158,1.0,4.0,84,0.00,,---,0.00,VWS V14.01,2013-01-13 15:54:00,
2013-01-13 08:59:00,-0.5,-4.4,29.80,SE,132,1.0,4.0,83,0.00,,---,0.00,VWS V14.01,2013-01-13 15:59:00,
2013-01-13 09:04:00,-0.3,-4.0,29.80,SE,139,0.0,0.0,84,0.00,,---,0.00,VWS V14.01,2013-01-13 16:04:00,
2013-01-13 09:09:00,0.4,-3.0,29.80,ESE,119,1.0,3.0,85,0.00,,---,0.00,VWS V14.01,2013-01-13 16:09:00,
2013-01-13 09:14:00,0.8,-2.9,29.80,SE,124,0.0,3.0,84,0.00,,---,0.00,VWS V14.01,2013-01-13 16:14:00,
2013-01-13 09:19:00,1.8,-1.9,29.80,SE,132,3.0,4.0,84,0.00,,---,0.00,VWS V14.01,2013-01-13 16:19:00,
2013-01-13 09:24:00,2.5,-2.0,29.80,SE,143,2.0,4.0,81,0.00,,---,0.00,VWS V14.01,2013-01-13 16:24:00,
2013-01-13 09:29:00,3.0,-1.5,29.79,ESE,111,0.0,4.0,81,0.00,,---,0.00,VWS V14.01,2013-01-13 16:29:00,
2013-01-13 09:34:00,3.1,-1.9,29.79,ESE,112,0.0,0.0,79,0.00,,---,0.00,VWS V14.01,2013-01-13 16:34:00,
2013-01-13 09:39:00,3.2,-2.1,29.79,ESE,118,1.0,3.0,78,0.00,,---,0.00,VWS V14.01,2013-01-13 16:39:00,
2013-01-13 09:44:00,3.3,-2.0,29.79,ESE,115,3.0,4.0,78,0.00,,---,0.00,VWS V14.01,2013-01-13 16:44:00,
2013-01-13 09:49:00,3.3,-1.7,29.79,ESE,123,0.0,4.0,79,0.00,,---,0.00,VWS V14.01,2013-01-13 16:49:00,
2013-01-13 09:54:00,3.4,-2.2,29.79,ESE,122,3.0,4.0,77,0.00,,---,0.00,VWS V14.01,2013-01-13 16:54:00,
2013-01-13 09:59:00,2.8,-3.0,29.79,ESE,113,3.0,4.0,76,0.00,,---,0.00,VWS V14.01,2013-01-13 16:59:00,
2013-01-13 10:04:00,2.4,-3.2,29.79,SE,132,1.0,2.0,77,0.00,,---,0.00,VWS V14.01,2013-01-13 17:04:00,
2013-01-13 10:09:00,2.1,-3.4,29.80,SE,132,1.0,6.0,77,0.00,,---,0.00,VWS V14.01,2013-01-13 17:09:00,
2013-01-13 10:14:00,1.6,-3.7,29.80,SE,146,2.0,6.0,78,0.00,,---,0.00,VWS V14.01,2013-01-13 17:14:00,
2013-01-13 10:19:00,1.7,-3.3,29.80,ESE,114,0.0,6.0,79,0.00,,---,0.00,VWS V14.01,2013-01-13 17:19:00,
2013-01-13 10:24:00,2.1,-2.9,29.80,SE,126,0.0,6.0,79,0.00,,---,0.00,VWS V14.01,2013-01-13 17:24:00,
2013-01-13 10:29:00,2.2,-3.1,29.80,ESE,121,2.0,6.0,78,0.00,,---,0.00,VWS V14.01,2013-01-13 17:29:00,
2013-01-13 10:34:00,2.1,-3.2,29.80,ESE,118,0.0,2.0,78,0.00,,---,0.00,VWS V14.01,2013-01-13 17:34:00,
2013-01-13 10:39:00,2.2,-2.8,29.80,ESE,114,2.0,4.0,79,0.00,,---,0.00,VWS V14.01,2013-01-13 17:39:00,
2013-01-13 10:43:00,2.5,-2.5,29.79,ESE,118,0.0,4.0,79,0.00,,---,0.00,VWS V14.01,2013-01-13 17:43:00,
2013-01-13 10:48:00,3.0,-2.0,29.79,ESE,119,0.0,4.0,79,0.00,,---,0.00,VWS V14.01,2013-01-13 17:48:00,
2013-01-13 10:53:00,3.2,-2.1,29.79,SE,131,5.0,5.0,78,0.00,,---,0.00,VWS V14.01,2013-01-13 17:53:00,
2013-01-13 10:58:00,3.0,-2.3,29.79,SE,129,2.0,5.0,78,0.00,,---,0.00,VWS V14.01,2013-01-13 17:58:00,
2013-01-13 11:03:00,3.3,-2.0,29.79,SE,138,2.0,4.0,78,0.00,,---,0.00,VWS V14.01,2013-01-13 18:03:00,
2013-01-13 11:08:00,3.3,-2.3,29.78,ESE,118,3.0,5.0,77,0.00,,---,0.00,VWS V14.01,2013-01-13 18:08:00,
2013-01-13 11:13:00,3.5,-1.8,29.78,ESE,122,4.0,5.0,78,0.00,,---,0.00,VWS V14.01,2013-01-13 18:13:00,
2013-01-13 11:18:00,3.5,-2.1,29.78,SSE,159,3.0,6.0,77,0.00,,---,0.00,VWS V14.01,2013-01-13 18:18:00,
2013-01-13 11:23:00,3.7,-1.9,29.78,WNW,290,0.0,6.0,77,0.00,,---,0.00,VWS V14.01,2013-01-13 18:23:00,
2013-01-13 11:28:00,4.1,-1.5,29.78,ESE,113,0.0,6.0,77,0.00,,---,0.00,VWS V14.01,2013-01-13 18:28:00,
2013-01-13 11:33:00,4.5,-1.4,29.78,ESE,122,0.0,0.0,76,0.00,,---,0.00,VWS V14.01,2013-01-13 18:33:00,
2013-01-13 11:38:00,4.8,-1.1,29.77,ESE,108,1.0,2.0,76,0.00,,---,0.00,VWS V14.01,2013-01-13 18:38:00,
2013-01-13 11:43:00,4.8,-1.6,29.77,SE,129,0.0,3.0,74,0.00,,---,0.00,VWS V14.01,2013-01-13 18:43:00,
2013-01-13 11:48:00,4.3,-1.9,29.77,SE,126,4.0,6.0,75,0.00,,---,0.00,VWS V14.01,2013-01-13 18:48:00,
2013-01-13 11:53:00,4.1,-1.8,29.77,ESE,113,1.0,6.0,76,0.00,,---,0.00,VWS V14.01,2013-01-13 18:53:00,
2013-01-13 11:58:00,4.2,-1.7,29.76,ESE,121,3.0,6.0,76,0.00,,---,0.00,VWS V14.01,2013-01-13 18:58:00,
2013-01-13 12:03:00,4.3,-1.6,29.77,ESE,110,1.0,2.0,76,0.00,,---,0.00,VWS V14.01,2013-01-13 19:03:00,
2013-01-13 12:08:00,4.6,-1.3,29.77,SE,125,3.0,4.0,76,0.00,,---,0.00,VWS V14.01,2013-01-13 19:08:00,
2013-01-13 12:13:00,4.5,-1.4,29.76,SE,126,3.0,4.0,76,0.00,,---,0.00,VWS V14.01,2013-01-13 19:13:00,
2013-01-13 12:18:00,4.3,-1.6,29.76,ESE,118,1.0,6.0,76,0.00,,---,0.00,VWS V14.01,2013-01-13 19:18:00,
2013-01-13 12:23:00,4.1,-2.0,29.76,SSE,149,2.0,6.0,75,0.00,,---,0.00,VWS V14.01,2013-01-13 19:23:00,
2013-01-13 12:28:00,3.9,-2.0,29.76,SE,127,3.0,6.0,76,0.00,,---,0.00,VWS V14.01,2013-01-13 19:28:00,
2013-01-13 12:33:00,3.6,-2.3,29.76,SE,136,2.0,3.0,76,0.00,,---,0.00,VWS V14.01,2013-01-13 19:33:00,
2013-01-13 12:38:00,3.2,-2.6,29.76,SE,128,2.0,5.0,76,0.00,,---,0.00,VWS V14.01,2013-01-13 19:38:00,
2013-01-13 12:43:00,2.9,-2.7,29.76,SE,128,2.0,5.0,77,0.00,,---,0.00,VWS V14.01,2013-01-13 19:43:00,
2013-01-13 12:48:00,2.7,-2.6,29.76,ESE,122,3.0,5.0,78,0.00,,---,0.00,VWS V14.01,2013-01-13 19:48:00,
2013-01-13 12:53:00,2.6,-2.7,29.76,SE,125,3.0,5.0,78,0.00,,---,0.00,VWS V14.01,2013-01-13 19:53:00,
2013-01-13 12:58:00,2.6,-2.4,29.76,SE,126,1.0,5.0,79,0.00,,---,0.00,VWS V14.01,2013-01-13 19:58:00,
2013-01-13 13:03:00,2.7,-2.3,29.76,ESE,117,0.0,0.0,79,0.00,,---,0.00,VWS V14.01,2013-01-13 20:03:00,
2013-01-13 13:08:00,2.9,-2.1,29.76,ESE,122,1.0,3.0,79,0.00,,---,0.00,VWS V14.01,2013-01-13 20:08:00,
2013-01-13 13:13:00,3.0,-2.0,29.77,NW,310,0.0,3.0,79,0.00,,---,0.00,VWS V14.01,2013-01-13 20:13:00,
2013-01-13 13:18:00,3.1,-1.9,29.77,ESE,122,0.0,3.0,79,0.00,,---,0.00,VWS V14.01,2013-01-13 20:18:00,
2013-01-13 13:23:00,3.2,-2.4,29.77,ESE,113,1.0,6.0,77,0.00,,---,0.00,VWS V14.01,2013-01-13 20:23:00,
2013-01-13 13:28:00,3.1,-2.2,29.77,ESE,111,0.0,6.0,78,0.00,,---,0.00,VWS V14.01,2013-01-13 20:28:00,
2013-01-13 13:33:00,3.4,-1.9,29.77,ESE,118,0.0,0.0,78,0.00,,---,0.00,VWS V14.01,2013-01-13 20:33:00,
2013-01-13 13:38:00,3.5,-2.3,29.77,ESE,113,0.0,2.0,76,0.00,,---,0.00,VWS V14.01,2013-01-13 20:38:00,
2013-01-13 13:43:00,3.4,-2.5,29.78,ESE,108,1.0,2.0,76,0.00,,---,0.00,VWS V14.01,2013-01-13 20:43:00,
2013-01-13 13:48:00,2.9,-2.9,29.78,ESE,115,0.0,4.0,76,0.00,,---,0.00,VWS V14.01,2013-01-13 20:48:00,
2013-01-13 13:53:00,2.9,-2.7,29.78,ESE,113,0.0,4.0,77,0.00,,---,0.00,VWS V14.01,2013-01-13 20:53:00,
2013-01-13 13:58:00,2.9,-2.7,29.78,SE,125,4.0,4.0,77,0.00,,---,0.00,VWS V14.01,2013-01-13 20:58:00,
2013-01-13 14:03:00,2.6,-2.7,29.78,SE,125,1.0,1.0,78,0.00,,---,0.00,VWS V14.01,2013-01-13 21:03:00,
2013-01-13 14:08:00,2.6,-2.7,29.78,ESE,110,1.0,1.0,78,0.00,,---,0.00,VWS V14.01,2013-01-13 21:08:00,
2013-01-13 14:13:00,2.6,-2.7,29.79,ESE,115,1.0,5.0,78,0.00,,---,0.00,VWS V14.01,2013-01-13 21:13:00,
2013-01-13 14:18:00,2.5,-2.8,29.79,SE,136,0.0,5.0,78,0.00,,---,0.00,VWS V14.01,2013-01-13 21:18:00,
2013-01-13 14:23:00,2.1,-2.9,29.79,SE,126,1.0,5.0,79,0.00,,---,0.00,VWS V14.01,2013-01-13 21:23:00,
2013-01-13 14:28:00,2.0,-2.7,29.79,ESE,117,1.0,5.0,80,0.00,,---,0.00,VWS V14.01,2013-01-13 21:28:00,
2013-01-13 14:33:00,1.9,-2.8,29.80,ESE,117,1.0,2.0,80,0.00,,---,0.00,VWS V14.01,2013-01-13 21:33:00,
2013-01-13 14:38:00,1.8,-3.2,29.80,SE,129,2.0,3.0,79,0.00,,---,0.00,VWS V14.01,2013-01-13 21:38:00,
2013-01-13 14:43:00,1.7,-3.3,29.80,SE,125,1.0,4.0,79,0.00,,---,0.00,VWS V14.01,2013-01-13 21:43:00,
2013-01-13 14:48:00,1.7,-3.3,29.80,SE,145,3.0,5.0,79,0.00,,---,0.00,VWS V14.01,2013-01-13 21:48:00,
2013-01-13 14:53:00,1.4,-3.3,29.80,ESE,113,1.0,5.0,80,0.00,,---,0.00,VWS V14.01,2013-01-13 21:53:00,
2013-01-13 14:58:00,1.4,-3.6,29.80,ESE,115,1.0,5.0,79,0.00,,---,0.00,VWS V14.01,2013-01-13 21:58:00,
2013-01-13 15:03:00,1.2,-3.5,29.80,ESE,111,3.0,3.0,80,0.00,,---,0.00,VWS V14.01,2013-01-13 22:03:00,
2013-01-13 15:08:00,1.3,-3.4,29.81,SE,125,2.0,4.0,80,0.00,,---,0.00,VWS V14.01,2013-01-13 22:08:00,
2013-01-13 15:13:00,1.3,-3.4,29.81,SE,133,0.0,4.0,80,0.00,,---,0.00,VWS V14.01,2013-01-13 22:13:00,
2013-01-13 15:18:00,1.2,-3.5,29.81,SE,125,2.0,4.0,80,0.00,,---,0.00,VWS V14.01,2013-01-13 22:18:00,
2013-01-13 15:23:00,0.9,-3.8,29.82,SE,135,2.0,4.0,80,0.00,,---,0.00,VWS V14.01,2013-01-13 22:23:00,
2013-01-13 15:28:00,0.8,-3.7,29.82,SE,125,1.0,4.0,81,0.00,,---,0.00,VWS V14.01,2013-01-13 22:28:00,
2013-01-13 15:33:00,0.7,-3.8,29.82,SE,134,2.0,2.0,81,0.00,,---,0.00,VWS V14.01,2013-01-13 22:33:00,
2013-01-13 15:38:00,0.6,-4.1,29.82,SE,139,2.0,4.0,80,0.00,,---,0.00,VWS V14.01,2013-01-13 22:38:00,
2013-01-13 15:43:00,0.6,-3.8,29.82,SE,136,1.0,4.0,81,0.00,,---,0.00,VWS V14.01,2013-01-13 22:43:00,
2013-01-13 15:48:00,0.5,-3.9,29.82,SE,125,1.0,4.0,81,0.00,,---,0.00,VWS V14.01,2013-01-13 22:48:00,
2013-01-13 15:53:00,0.4,-4.3,29.83,SE,128,1.0,4.0,80,0.00,,---,0.00,VWS V14.01,2013-01-13 22:53:00,
2013-01-13 15:58:00,0.2,-4.5,29.83,SE,126,0.0,4.0,80,0.00,,---,0.00,VWS V14.01,2013-01-13 22:58:00,
2013-01-13 16:03:00,0.1,-4.3,29.83,SE,126,1.0,1.0,81,0.00,,---,0.00,VWS V14.01,2013-01-13 23:03:00,
2013-01-13 16:08:00,0.1,-4.4,29.83,SE,129,2.0,3.0,81,0.00,,---,0.00,VWS V14.01,2013-01-13 23:08:00,
2013-01-13 16:13:00,-0.1,-4.5,29.83,ESE,121,1.0,3.0,81,0.00,,---,0.00,VWS V14.01,2013-01-13 23:13:00,
2013-01-13 16:18:00,-0.2,-4.6,29.83,SE,129,2.0,3.0,81,0.00,,---,0.00,VWS V14.01,2013-01-13 23:18:00,
2013-01-13 16:23:00,-0.3,-4.7,29.83,SE,132,0.0,3.0,81,0.00,,---,0.00,VWS V14.01,2013-01-13 23:23:00,
2013-01-13 16:28:00,-0.4,-4.8,29.84,SE,124,0.0,3.0,81,0.00,,---,0.00,VWS V14.01,2013-01-13 23:28:00,
2013-01-13 16:33:00,-0.5,-4.9,29.84,ESE,123,0.0,0.0,81,0.00,,---,0.00,VWS V14.01,2013-01-13 23:33:00,
2013-01-13 16:38:00,-0.6,-5.0,29.84,SE,132,1.0,3.0,81,0.00,,---,0.00,VWS V14.01,2013-01-13 23:38:00,
2013-01-13 16:43:00,-0.8,-5.2,29.84,SE,132,0.0,3.0,81,0.00,,---,0.00,VWS V14.01,2013-01-13 23:43:00,
2013-01-13 16:48:00,-0.9,-5.3,29.84,SE,132,0.0,3.0,81,0.00,,---,0.00,VWS V14.01,2013-01-13 23:48:00,
2013-01-13 16:53:00,-1.1,-5.5,29.84,SE,126,2.0,3.0,81,0.00,,---,0.00,VWS V14.01,2013-01-13 23:53:00,
2013-01-13 16:58:00,-1.4,-5.8,29.84,SE,125,0.0,3.0,81,0.00,,---,0.00,VWS V14.01,2013-01-13 23:58:00,
2013-01-13 17:03:00,-1.4,-5.6,29.84,SE,136,1.0,1.0,82,0.00,,---,0.00,VWS V14.01,2013-01-14 00:03:00,
2013-01-13 17:08:00,-1.5,-5.7,29.84,SE,128,2.0,2.0,82,0.00,,---,0.00,VWS V14.01,2013-01-14 00:08:00,
2013-01-13 17:13:00,-1.6,-5.7,29.84,ESE,114,3.0,3.0,82,0.00,,---,0.00,VWS V14.01,2013-01-14 00:13:00,
2013-01-13 17:18:00,-1.9,-5.8,29.85,SE,132,1.0,4.0,83,0.00,,---,0.00,VWS V14.01,2013-01-14 00:18:00,
2013-01-13 17:23:00,-2.1,-6.2,29.84,SE,127,1.0,4.0,82,0.00,,---,0.00,VWS V14.01,2013-01-14 00:23:00,
2013-01-13 17:28:00,-2.3,-6.2,29.84,SE,127,0.0,4.0,83,0.00,,---,0.00,VWS V14.01,2013-01-14 00:28:00,
2013-01-13 17:33:00,-2.3,-6.2,29.85,SE,127,0.0,4.0,83,0.00,,---,0.00,VWS V14.01,2013-01-14 00:33:00,
2013-01-13 17:38:00,-2.4,-6.3,29.85,SE,126,1.0,2.0,83,0.00,,---,0.00,VWS V14.01,2013-01-14 00:38:00,
2013-01-13 17:43:00,-2.5,-6.6,29.85,SE,124,1.0,2.0,82,0.00,,---,0.00,VWS V14.01,2013-01-14 00:43:00,
2013-01-13 17:48:00,-2.7,-6.6,29.85,SE,124,0.0,2.0,83,0.00,,---,0.00,VWS V14.01,2013-01-14 00:48:00,
2013-01-13 17:53:00,-2.8,-6.7,29.86,ESE,122,1.0,2.0,83,0.00,,---,0.00,VWS V14.01,2013-01-14 00:53:00,
2013-01-13 17:58:00,-2.9,-6.8,29.85,ESE,123,0.0,2.0,83,0.00,,---,0.00,VWS V14.01,2013-01-14 00:58:00,
2013-01-13 18:03:00,-3.0,-6.9,29.86,SE,124,0.0,0.0,83,0.00,,---,0.00,VWS V14.01,2013-01-14 01:03:00,
2013-01-13 18:08:00,-3.0,-6.9,29.86,SE,129,2.0,2.0,83,0.00,,---,0.00,VWS V14.01,2013-01-14 01:08:00,
2013-01-13 18:13:00,-3.2,-7.1,29.86,ESE,121,0.0,2.0,83,0.00,,---,0.00,VWS V14.01,2013-01-14 01:13:00,
2013-01-13 18:18:00,-3.3,-7.2,29.86,ESE,121,0.0,2.0,83,0.00,,---,0.00,VWS V14.01,2013-01-14 01:18:00,
2013-01-13 18:23:00,-3.3,-7.2,29.86,ESE,121,0.0,2.0,83,0.00,,---,0.00,VWS V14.01,2013-01-14 01:23:00,
2013-01-13 18:28:00,-3.4,-7.3,29.86,ESE,121,0.0,2.0,83,0.00,,---,0.00,VWS V14.01,2013-01-14 01:28:00,
2013-01-13 18:33:00,-3.4,-7.3,29.87,ESE,121,0.0,0.0,83,0.00,,---,0.00,VWS V14.01,2013-01-14 01:33:00,
2013-01-13 18:38:00,-3.5,-7.4,29.86,ESE,121,0.0,0.0,83,0.00,,---,0.00,VWS V14.01,2013-01-14 01:38:00,
2013-01-13 18:43:00,-3.5,-7.4,29.86,ESE,122,0.0,0.0,83,0.00,,---,0.00,VWS V14.01,2013-01-14 01:43:00,
2013-01-13 18:48:00,-3.6,-7.5,29.87,ESE,121,0.0,0.0,83,0.00,,---,0.00,VWS V14.01,2013-01-14 01:48:00,
2013-01-13 18:53:00,-3.7,-7.6,29.87,ESE,121,0.0,0.0,83,0.00,,---,0.00,VWS V14.01,2013-01-14 01:53:00,
2013-01-13 18:58:00,-3.7,-7.6,29.87,ESE,121,0.0,0.0,83,0.00,,---,0.00,VWS V14.01,2013-01-14 01:58:00,
2013-01-13 19:03:00,-3.9,-7.8,29.87,SSE,166,0.0,0.0,83,0.00,,---,0.00,VWS V14.01,2013-01-14 02:03:00,
2013-01-13 19:08:00,-4.0,-7.8,29.87,SSE,167,0.0,0.0,83,0.00,,---,0.00,VWS V14.01,2013-01-14 02:08:00,
2013-01-13 19:13:00,-4.1,-7.9,29.87,SSE,167,0.0,0.0,83,0.00,,---,0.00,VWS V14.01,2013-01-14 02:13:00,
2013-01-13 19:18:00,-4.1,-7.9,29.87,SSE,166,0.0,0.0,83,0.00,,---,0.00,VWS V14.01,2013-01-14 02:18:00,
2013-01-13 19:23:00,-4.1,-7.9,29.87,SSE,166,0.0,0.0,83,0.00,,---,0.00,VWS V14.01,2013-01-14 02:23:00,
2013-01-13 19:28:00,-4.2,-8.0,29.87,SSE,165,0.0,0.0,83,0.00,,---,0.00,VWS V14.01,2013-01-14 02:28:00,
2013-01-13 19:33:00,-4.3,-8.1,29.88,SSE,165,0.0,0.0,83,0.00,,---,0.00,VWS V14.01,2013-01-14 02:33:00,
2013-01-13 19:38:00,-4.5,-8.6,29.87,SSE,165,0.0,0.0,82,0.00,,---,0.00,VWS V14.01,2013-01-14 02:38:00,
2013-01-13 19:43:00,-4.9,-9.0,29.87,SSE,165,0.0,0.0,82,0.00,,---,0.00,VWS V14.01,2013-01-14 02:43:00,
2013-01-13 19:48:00,-5.3,-9.6,29.87,SSE,165,0.0,0.0,81,0.00,,---,0.00,VWS V14.01,2013-01-14 02:48:00,
2013-01-13 19:53:00,-5.6,-9.9,29.88,SSE,165,0.0,0.0,81,0.00,,---,0.00,VWS V14.01,2013-01-14 02:53:00,
2013-01-13 19:58:00,-5.9,-10.0,29.88,SSE,165,0.0,0.0,82,0.00,,---,0.00,VWS V14.01,2013-01-14 02:58:00,
2013-01-13 20:03:00,-6.2,-10.2,29.88,SSE,165,0.0,0.0,82,0.00,,---,0.00,VWS V14.01,2013-01-14 03:03:00,
2013-01-13 20:08:00,-6.4,-10.4,29.88,SSE,165,0.0,0.0,82,0.00,,---,0.00,VWS V14.01,2013-01-14 03:08:00,
2013-01-13 20:13:00,-6.6,-10.6,29.88,SSE,165,0.0,0.0,82,0.00,,---,0.00,VWS V14.01,2013-01-14 03:13:00,
2013-01-13 20:18:00,-6.8,-10.8,29.88,SSE,165,0.0,0.0,82,0.00,,---,0.00,VWS V14.01,2013-01-14 03:18:00,
2013-01-13 20:23:00,-7.0,-11.0,29.88,SSE,165,0.0,0.0,82,0.00,,---,0.00,VWS V14.01,2013-01-14 03:23:00,
2013-01-13 20:28:00,-7.1,-10.9,29.88,SSE,165,0.0,0.0,83,0.00,,---,0.00,VWS V14.01,2013-01-14 03:28:00,
2013-01-13 20:33:00,-7.1,-10.9,29.88,SSE,165,0.0,0.0,83,0.00,,---,0.00,VWS V14.01,2013-01-14 03:33:00,
2013-01-13 20:38:00,-7.2,-10.8,29.88,SSE,165,0.0,0.0,84,0.00,,---,0.00,VWS V14.01,2013-01-14 03:38:00,
2013-01-13 20:43:00,-7.2,-10.8,29.88,SSE,165,0.0,0.0,84,0.00,,---,0.00,VWS V14.01,2013-01-14 03:43:00,
2013-01-13 20:48:00,-7.2,-10.8,29.88,SSE,165,0.0,0.0,84,0.00,,---,0.00,VWS V14.01,2013-01-14 03:48:00,
2013-01-13 20:53:00,-7.2,-10.8,29.88,SSE,163,0.0,0.0,84,0.00,,---,0.00,VWS V14.01,2013-01-14 03:53:00,
2013-01-13 20:58:00,-7.3,-10.8,29.88,SSE,165,0.0,0.0,84,0.00,,---,0.00,VWS V14.01,2013-01-14 03:58:00,
2013-01-13 21:03:00,-7.3,-11.1,29.88,SSE,165,0.0,0.0,83,0.00,,---,0.00,VWS V14.01,2013-01-14 04:03:00,
2013-01-13 21:08:00,-7.5,-11.3,29.88,SSE,164,0.0,0.0,83,0.00,,---,0.00,VWS V14.01,2013-01-14 04:08:00,
2013-01-13 21:13:00,-7.7,-11.5,29.88,SSE,163,0.0,0.0,83,0.00,,---,0.00,VWS V14.01,2013-01-14 04:13:00,
2013-01-13 21:18:00,-7.8,-11.6,29.88,SSE,163,0.0,0.0,83,0.00,,---,0.00,VWS V14.01,2013-01-14 04:18:00,
2013-01-13 21:23:00,-7.8,-11.6,29.88,SSE,163,0.0,0.0,83,0.00,,---,0.00,VWS V14.01,2013-01-14 04:23:00,
2013-01-13 21:28:00,-7.7,-11.2,29.88,SSE,165,0.0,0.0,84,0.00,,---,0.00,VWS V14.01,2013-01-14 04:28:00,
2013-01-13 21:33:00,-7.6,-11.1,29.88,SSE,163,0.0,0.0,84,0.00,,---,0.00,VWS V14.01,2013-01-14 04:33:00,
2013-01-13 21:38:00,-7.6,-11.1,29.88,SSE,163,0.0,0.0,84,0.00,,---,0.00,VWS V14.01,2013-01-14 04:38:00,
2013-01-13 21:43:00,-7.6,-11.1,29.88,SSE,165,0.0,0.0,84,0.00,,---,0.00,VWS V14.01,2013-01-14 04:43:00,
2013-01-13 21:48:00,-7.6,-11.1,29.88,SSE,163,0.0,0.0,84,0.00,,---,0.00,VWS V14.01,2013-01-14 04:48:00,
2013-01-13 21:53:00,-7.6,-11.4,29.88,SSE,163,0.0,0.0,83,0.00,,---,0.00,VWS V14.01,2013-01-14 04:53:00,
2013-01-13 21:58:00,-7.6,-11.4,29.88,SSE,163,0.0,0.0,83,0.00,,---,0.00,VWS V14.01,2013-01-14 04:58:00,
2013-01-13 22:00:00,-7.6,-11.4,29.88,SSE,163,0.0,0.0,83,0.00,,---,0.00,VWS V14.01,2013-01-14 05:00:00,
2013-01-13 22:01:00,-7.6,-11.4,29.88,SSE,163,0.0,0.0,83,0.00,,---,0.00,VWS V14.01,2013-01-14 05:01:00,
2013-01-13 22:06:00,-7.8,-11.8,29.88,SSE,165,0.0,0.0,82,0.00,,---,0.00,VWS V14.01,2013-01-14 05:06:00,
2013-01-13 22:11:00,-7.9,-11.9,29.88,SSE,163,0.0,0.0,82,0.00,,---,0.00,VWS V14.01,2013-01-14 05:11:00,
2013-01-13 22:16:00,-7.9,-11.9,29.87,SW,222,0.0,0.0,82,0.00,,---,0.00,VWS V14.01,2013-01-14 05:16:00,
2013-01-13 22:21:00,-8.0,-12.0,29.87,WSW,250,0.0,0.0,82,0.00,,---,0.00,VWS V14.01,2013-01-14 05:21:00,
2013-01-13 22:26:00,-8.2,-12.5,29.88,NW,307,0.0,0.0,81,0.00,,---,0.00,VWS V14.01,2013-01-14 05:26:00,
2013-01-13 22:31:00,-8.4,-12.6,29.88,NW,307,0.0,0.0,81,0.00,,---,0.00,VWS V14.01,2013-01-14 05:31:00,
2013-01-13 22:36:00,-8.6,-12.9,29.88,NW,307,0.0,0.0,81,0.00,,---,0.00,VWS V14.01,2013-01-14 05:36:00,
2013-01-13 22:41:00,-8.8,-13.0,29.87,NW,307,0.0,0.0,81,0.00,,---,0.00,VWS V14.01,2013-01-14 05:41:00,
2013-01-13 22:46:00,-8.7,-12.7,29.87,NNW,333,0.0,0.0,82,0.00,,---,0.00,VWS V14.01,2013-01-14 05:46:00,
2013-01-13 22:51:00,-8.3,-12.1,29.87,NNW,339,0.0,0.0,83,0.00,,---,0.00,VWS V14.01,2013-01-14 05:51:00,
2013-01-13 22:56:00,-8.4,-12.4,29.87,NNW,338,0.0,0.0,82,0.00,,---,0.00,VWS V14.01,2013-01-14 05:56:00,
2013-01-13 23:01:00,-8.7,-12.9,29.87,North,350,0.0,0.0,81,0.00,,---,0.00,VWS V14.01,2013-01-14 06:01:00,
2013-01-13 23:06:00,-8.9,-13.1,29.88,North,350,0.0,0.0,81,0.00,,---,0.00,VWS V14.01,2013-01-14 06:06:00,
2013-01-13 23:11:00,-9.2,-13.4,29.87,North,349,0.0,0.0,81,0.00,,---,0.00,VWS V14.01,2013-01-14 06:11:00,
2013-01-13 23:16:00,-9.5,-13.7,29.87,North,349,0.0,0.0,81,0.00,,---,0.00,VWS V14.01,2013-01-14 06:16:00,
2013-01-13 23:21:00,-9.7,-13.7,29.87,North,350,0.0,0.0,82,0.00,,---,0.00,VWS V14.01,2013-01-14 06:21:00,
2013-01-13 23:26:00,-9.8,-13.8,29.87,North,350,0.0,0.0,82,0.00,,---,0.00,VWS V14.01,2013-01-14 06:26:00,
2013-01-13 23:31:00,-9.7,-13.4,29.88,North,350,0.0,0.0,83,0.00,,---,0.00,VWS V14.01,2013-01-14 06:31:00,
2013-01-13 23:36:00,-9.6,-13.3,29.88,NNW,342,0.0,0.0,83,0.00,,---,0.00,VWS V14.01,2013-01-14 06:36:00,
2013-01-13 23:41:00,-9.5,-13.5,29.88,NNW,342,0.0,0.0,82,0.00,,---,0.00,VWS V14.01,2013-01-14 06:41:00,
2013-01-13 23:46:00,-9.4,-13.1,29.88,NNW,343,0.0,0.0,83,0.00,,---,0.00,VWS V14.01,2013-01-14 06:46:00,
2013-01-13 23:51:00,-9.4,-13.4,29.88,NNW,343,0.0,0.0,82,0.00,,---,0.00,VWS V14.01,2013-01-14 06:51:00,
2013-01-13 23:56:00,-9.4,-13.1,29.88,NNW,342,0.0,0.0,83,0.00,,---,0.00,VWS V14.01,2013-01-14 06:56:00,